Odate Noshiro, Japan

12:40 AM JST on February 15, 2016 (GMT +0900)
Aomori | | Change Station
CLOSE
Current Station
Airport
Location: Aomori Airport,
Elevation: 659 ft
Nearby Weather Stations

Elev 659 ft 40.73 °N, 140.69 °E | Updated 2 hours ago

Light Snow Showers
Light Showers Snow
32 °F
Feels Like 21 °F
N
17
Wind Variable Wind from West
Gusts 31 mph

Today
High -- | Low -- °F
--% Chance of Precip.
Yesterday
High -- | Low -- °F
Precip. -- in
Pressure 29.44 in
Visibility 1.2 miles
Clouds Few 200 ft
Mostly Cloudy 400 ft
Mostly Cloudy 1000 ft
Windchill 21 °F
Dew Point 32 °F
Humidity 100%
Rainfall 0.00 in
Snow Depth Not available.
6:33 AM 5:12 PM
Waxing Crescent, 42% visible
SPECI RJSA 141248Z 26015G27KT 2000 -SHSN FEW002 BKN004 BKN010 00/M00 Q0997 RMK 1ST002 5ST004 7ST010 A2947
Pressure 29.44 in
Visibility 1.2 miles
Clouds Few 200 ft
Mostly Cloudy 400 ft
Mostly Cloudy 1000 ft
Windchill 21 °F
Dew Point 32 °F
Humidity 100%
Rainfall 0.00 in
Snow Depth Not available.
6:33 AM 5:12 PM
Waxing Crescent, 42% visible
SPECI RJSA 141248Z 26015G27KT 2000 -SHSN FEW002 BKN004 BKN010 00/M00 Q0997 RMK 1ST002 5ST004 7ST010 A2947

10-Day Weather Forecast

No radar image for this location.
×

Almanac

Astronomy

Feb. 15, 2016 Rise Set
Actual Time
Civil Twilight
Nautical Twilight
Astronomical Twilight
Moon
Length of Visible Light
Length of Day
Tomorrow will be .
, % of the Moon is Illuminated

Today's Extremes

Country Highs Country Lows

Community

WunderPhotos

Upload Photos

1,892,795 photos uploaded!

WunderBlog® & News

Nearby

Air Quality

  Air Quality AQ Index Pollutant
Not available.

Snow Depth

Station Depth Elevation

Earthquake Activity

City Distance Mag. Time & Date
Minimum magnitude displayed is 2.5.

Coastal Water Temperatures

Place Temperature

Stations

Nearby Weather Stations

Station Location Temp. Windchill Dew Point Humidity Wind Precip. Elev Updated Type